Time;durP1;ratioP1;P1;durP2;ratioP2;P2;SDS_P1;SDS_P2;PMS_P1;PMS_P2;Temp;Humidity;BMP_temperature;BMP_pressure;BME280_temperature;BME280_humidity;BME280_pressure;Samples;Min_cycle;Max_cycle;Signal;HPM_P1;HPM_P2
2022/03/13 00:04:19;;;;;;;9.35;5.45;;;;;;;6.62;52.63;101572.09;10406834;28;20050;-61
2022/03/13 00:09:41;;;;;;;12.43;6.20;;;;;;;6.70;53.32;101570.91;10383706;28;20785;-62
2022/03/13 00:15:05;;;;;;;13.00;5.88;;;;;;;6.51;51.85;101571.63;10407040;28;20045;-62
2022/03/13 00:20:27;;;;;;;9.85;5.93;;;;;;;6.49;51.42;101568.25;10393371;28;20053;-62
2022/03/13 00:25:49;;;;;;;10.98;6.28;;;;;;;6.45;51.23;101574.44;10385008;28;20054;-62
2022/03/13 00:31:11;;;;;;;8.75;5.70;;;;;;;6.40;51.71;101573.78;10366526;28;20051;-62
2022/03/13 00:36:34;;;;;;;9.27;5.30;;;;;;;6.27;51.59;101565.59;10364870;28;20101;-62
2022/03/13 00:41:55;;;;;;;9.52;6.00;;;;;;;6.26;51.12;101558.72;10379264;28;20065;-61
2022/03/13 00:47:19;;;;;;;10.68;5.45;;;;;;;6.16;50.72;101566.84;10393528;28;20046;-63
2022/03/13 00:52:41;;;;;;;8.85;5.50;;;;;;;6.14;50.22;101553.13;10406405;28;20053;-62
2022/03/13 00:58:03;;;;;;;10.45;5.75;;;;;;;6.14;51.97;101555.72;10391868;28;20054;-62
2022/03/13 01:03:30;;;;;;;13.60;6.20;;;;;;;6.13;52.22;101551.44;10388169;28;20049;-62
2022/03/13 01:08:52;;;;;;;11.77;5.75;;;;;;;5.99;51.19;101551.06;10421072;28;20664;-62
2022/03/13 01:14:16;;;;;;;11.73;5.72;;;;;;;6.08;50.99;101548.16;10367106;28;20136;-62
2022/03/13 01:19:38;;;;;;;12.95;5.85;;;;;;;5.91;53.04;101548.72;10369345;28;20663;-62
2022/03/13 01:24:59;;;;;;;10.52;5.80;;;;;;;5.88;52.31;101537.66;10405704;28;20486;-62
2022/03/13 01:30:21;;;;;;;10.63;5.60;;;;;;;5.81;53.17;101541.38;10402649;28;20045;-62
2022/03/13 01:35:43;;;;;;;9.52;5.75;;;;;;;5.73;53.09;101535.53;10406044;28;20045;-62
2022/03/13 01:41:06;;;;;;;11.30;6.10;;;;;;;5.75;53.48;101534.59;10410728;28;20143;-62
2022/03/13 01:46:28;;;;;;;10.20;5.80;;;;;;;5.47;51.76;101547.63;10409736;28;20045;-62
2022/03/13 01:51:50;;;;;;;10.85;5.60;;;;;;;5.51;53.03;101534.59;10409187;28;20515;-61
2022/03/13 01:57:17;;;;;;;10.52;6.40;;;;;;;5.46;55.19;101531.28;10401769;28;20041;-61
2022/03/13 02:02:45;;;;;;;10.57;5.82;;;;;;;5.51;53.71;101526.81;10398258;28;20057;-61
2022/03/13 02:08:22;;;;;;;10.82;6.22;;;;;;;5.35;53.93;101520.47;10402742;28;20053;-62
2022/03/13 02:13:47;;;;;;;12.43;5.93;;;;;;;5.32;54.09;101523.13;10421088;28;20049;-62
2022/03/13 02:19:09;;;;;;;10.93;5.80;;;;;;;5.19;55.08;101521.84;10412656;28;20049;-62
2022/03/13 02:24:31;;;;;;;9.10;5.78;;;;;;;5.18;55.31;101517.56;10411880;28;20047;-62
2022/03/13 02:29:52;;;;;;;12.18;6.72;;;;;;;5.12;55.89;101515.16;10410119;28;20045;-61
2022/03/13 02:35:17;;;;;;;12.50;6.18;;;;;;;5.04;52.97;101516.28;10399074;28;20056;-61
2022/03/13 02:40:38;;;;;;;10.30;6.45;;;;;;;5.15;54.96;101517.66;10415881;28;20073;-61
2022/03/13 02:46:00;;;;;;;9.55;6.07;;;;;;;5.07;54.60;101511.91;10410256;28;20052;-61
2022/03/13 02:51:22;;;;;;;11.60;7.00;;;;;;;4.94;56.43;101509.72;10406325;28;20050;-61
2022/03/13 02:56:46;;;;;;;12.23;6.43;;;;;;;4.86;54.15;101501.38;10405837;28;20383;-61
2022/03/13 03:02:07;;;;;;;13.20;6.95;;;;;;;4.68;55.77;101499.34;10413712;28;20059;-62
2022/03/13 03:07:30;;;;;;;10.43;6.63;;;;;;;4.76;56.25;101500.81;10408984;28;20157;-62
2022/03/13 03:12:51;;;;;;;15.90;6.97;;;;;;;4.81;55.30;101493.75;10410612;28;20050;-61
2022/03/13 03:18:13;;;;;;;11.43;6.57;;;;;;;4.71;55.39;101498.41;10396391;28;20041;-62
2022/03/13 03:23:35;;;;;;;12.10;6.47;;;;;;;4.66;57.21;101502.88;10409870;28;20053;-62
2022/03/13 03:28:56;;;;;;;10.88;6.78;;;;;;;4.71;55.93;101500.97;10408632;28;20050;-61
2022/03/13 03:34:21;;;;;;;8.80;5.47;;;;;;;4.45;54.34;101499.16;10428580;28;20037;-62
2022/03/13 03:39:42;;;;;;;13.57;6.57;;;;;;;4.56;55.32;101496.28;10433719;28;20061;-62
2022/03/13 03:45:04;;;;;;;15.05;6.45;;;;;;;4.49;58.12;101484.47;10408580;28;20609;-62
2022/03/13 03:50:26;;;;;;;16.83;6.82;;;;;;;4.31;53.54;101490.97;10392147;28;20548;-61
2022/03/13 03:55:48;;;;;;;12.10;6.28;;;;;;;4.30;53.44;101491.03;10380041;28;20529;-61
2022/03/13 04:01:10;;;;;;;14.48;6.95;;;;;;;4.29;54.99;101494.50;10397489;28;20049;-62
2022/03/13 04:06:33;;;;;;;12.32;6.32;;;;;;;4.23;55.81;101492.94;10434097;28;20050;-61
2022/03/13 04:11:54;;;;;;;13.02;6.75;;;;;;;4.28;56.53;101490.22;10424551;28;20093;-61
2022/03/13 04:17:16;;;;;;;11.48;6.75;;;;;;;4.21;55.77;101488.72;10409316;28;20049;-61
2022/03/13 04:22:37;;;;;;;12.95;6.45;;;;;;;4.14;54.96;101484.59;10398133;28;20054;-61
2022/03/13 04:27:59;;;;;;;11.52;6.85;;;;;;;4.03;55.92;101489.22;10366967;28;20447;-61
2022/03/13 04:33:22;;;;;;;11.25;6.70;;;;;;;4.11;55.88;101490.72;10400421;28;20053;-62
2022/03/13 04:38:43;;;;;;;11.07;6.25;;;;;;;4.01;56.67;101496.97;10408619;28;20053;-62
2022/03/13 04:44:08;;;;;;;12.18;7.00;;;;;;;4.01;56.92;101496.16;10448052;28;20056;-61
2022/03/13 04:49:29;;;;;;;13.40;6.88;;;;;;;3.89;56.67;101507.63;10414424;28;20672;-61
2022/03/13 04:54:51;;;;;;;10.95;6.80;;;;;;;3.90;57.75;101493.03;10409423;28;20049;-61
2022/03/13 05:00:13;;;;;;;12.70;7.18;;;;;;;3.82;55.67;101495.81;10387913;28;20054;-62
2022/03/13 05:05:36;;;;;;;12.70;6.95;;;;;;;3.73;57.59;101499.50;10405244;28;20360;-61
2022/03/13 05:10:59;;;;;;;15.70;7.35;;;;;;;3.69;57.41;101493.59;10407708;28;20049;-61
2022/03/13 05:16:21;;;;;;;15.55;7.18;;;;;;;3.64;58.07;101500.56;10380115;28;20050;-61
2022/03/13 05:21:43;;;;;;;10.45;6.72;;;;;;;3.60;56.42;101492.97;10389499;28;20133;-62
2022/03/13 05:27:05;;;;;;;12.55;7.47;;;;;;;3.53;56.82;101492.28;10372776;28;20050;-61
2022/03/13 05:32:27;;;;;;;11.30;7.13;;;;;;;3.60;57.54;101488.69;10373368;28;20057;-61
2022/03/13 05:37:48;;;;;;;16.92;7.78;;;;;;;3.46;55.45;101488.19;10378554;28;20516;-61
2022/03/13 05:43:13;;;;;;;11.50;6.63;;;;;;;3.52;56.33;101490.59;10372798;28;20054;-62
2022/03/13 05:48:36;;;;;;;13.38;7.57;;;;;;;3.60;56.75;101490.38;10371888;28;20050;-61
2022/03/13 05:53:57;;;;;;;11.75;6.95;;;;;;;3.62;55.80;101494.63;10371698;28;20064;-62
2022/03/13 05:59:20;;;;;;;12.55;7.30;;;;;;;3.65;58.64;101491.97;10435150;28;20060;-62
2022/03/13 06:04:41;;;;;;;13.55;7.07;;;;;;;3.68;59.74;101491.88;10411507;28;20057;-61
2022/03/13 06:10:04;;;;;;;17.02;7.47;;;;;;;3.32;56.74;101505.72;10412677;28;20053;-61
2022/03/13 06:15:28;;;;;;;13.25;6.95;;;;;;;3.38;57.38;101508.13;10387417;28;20060;-61
2022/03/13 06:20:50;;;;;;;12.75;6.97;;;;;;;3.43;57.22;101511.44;10396385;28;20057;-62
2022/03/13 06:26:11;;;;;;;11.45;7.32;;;;;;;3.48;57.43;101503.59;10409359;28;20048;-62
2022/03/13 06:31:33;;;;;;;11.18;6.85;;;;;;;3.53;56.75;101507.75;10398083;28;20058;-62
2022/03/13 06:36:55;;;;;;;12.82;7.07;;;;;;;3.66;57.19;101503.13;10411776;28;20049;-63
2022/03/13 06:42:17;;;;;;;11.50;7.15;;;;;;;3.61;56.64;101507.53;10397823;28;20053;-63
2022/03/13 06:47:40;;;;;;;12.45;7.35;;;;;;;3.77;55.70;101501.97;10369586;28;20046;-62
2022/03/13 06:53:02;;;;;;;12.43;6.95;;;;;;;3.74;55.52;101508.91;10370585;28;20573;-63
2022/03/13 06:58:24;;;;;;;12.20;7.22;;;;;;;3.84;55.57;101511.22;10425508;28;20052;-63
2022/03/13 07:03:46;;;;;;;14.32;7.60;;;;;;;4.08;55.05;101513.13;10369682;28;20065;-62
2022/03/13 07:09:07;;;;;;;11.65;6.95;;;;;;;4.08;53.52;101510.56;10370136;28;20054;-63
2022/03/13 07:14:29;;;;;;;11.82;6.40;;;;;;;4.07;54.14;101508.91;10369601;28;20187;-63
2022/03/13 07:19:51;;;;;;;11.95;6.72;;;;;;;4.29;53.94;101507.41;10389643;28;20072;-63
2022/03/13 07:25:14;;;;;;;11.75;7.13;;;;;;;4.27;52.84;101509.16;10409765;28;20053;-62
2022/03/13 07:30:36;;;;;;;12.48;6.97;;;;;;;4.36;53.73;101503.78;10408821;28;20050;-62
2022/03/13 07:35:58;;;;;;;12.68;6.88;;;;;;;4.48;52.20;101506.00;10402099;28;20112;-62
2022/03/13 07:41:19;;;;;;;17.25;7.57;;;;;;;4.72;54.28;101504.38;10403417;28;20061;-62
2022/03/13 07:46:41;;;;;;;12.82;7.35;;;;;;;4.79;53.13;101500.72;10388312;28;20038;-67
2022/03/13 07:52:04;;;;;;;15.40;7.40;;;;;;;4.95;52.83;101499.34;10354634;28;20059;-67
2022/03/13 07:57:27;;;;;;;12.20;7.28;;;;;;;5.13;50.44;101516.03;10365025;28;20042;-67
2022/03/13 08:02:49;;;;;;;13.13;7.20;;;;;;;5.22;50.74;101519.16;10375969;28;20514;-64
2022/03/13 08:08:11;;;;;;;13.68;7.43;;;;;;;5.26;54.48;101520.75;10392969;28;20068;-64
2022/03/13 08:13:32;;;;;;;12.18;7.00;;;;;;;5.36;51.12;101511.81;10394603;28;20762;-65
2022/03/13 08:18:54;;;;;;;14.32;7.18;;;;;;;5.32;52.79;101512.81;10433409;28;20045;-64
2022/03/13 08:24:17;;;;;;;14.57;7.32;;;;;;;5.36;53.03;101509.22;10400396;28;20049;-64
2022/03/13 08:29:38;;;;;;;13.13;7.47;;;;;;;5.50;52.60;101512.22;10400868;28;20068;-64
2022/03/13 08:35:01;;;;;;;11.73;7.07;;;;;;;5.54;51.23;101503.44;10387621;28;20513;-64
2022/03/13 08:40:27;;;;;;;13.77;7.18;;;;;;;5.53;52.04;101486.22;10419626;28;20052;-64
2022/03/13 08:45:48;;;;;;;13.38;7.88;;;;;;;5.70;52.96;101495.13;10441115;28;20067;-64
2022/03/13 08:51:18;;;;;;;15.07;7.20;;;;;;;5.81;50.16;101497.38;10401015;28;20072;-64
2022/03/13 08:56:41;;;;;;;13.30;7.30;;;;;;;6.06;51.20;101500.78;10398527;28;20413;-64
2022/03/13 09:02:03;;;;;;;13.40;6.88;;;;;;;6.20;52.01;101503.72;10400485;28;20045;-64
2022/03/13 09:07:25;;;;;;;12.77;7.15;;;;;;;6.48;50.14;101504.41;10393256;28;20038;-64
2022/03/13 09:12:46;;;;;;;11.93;6.47;;;;;;;6.66;51.58;101496.78;10366948;28;20648;-64
2022/03/13 09:18:08;;;;;;;12.07;7.45;;;;;;;6.85;52.50;101490.84;10400035;28;20061;-64
2022/03/13 09:23:30;;;;;;;12.73;7.30;;;;;;;7.03;51.93;101487.53;10399055;28;20417;-63
2022/03/13 09:28:52;;;;;;;15.38;8.13;;;;;;;7.34;49.64;101493.19;10386381;28;20085;-64
2022/03/13 09:34:14;;;;;;;12.05;6.85;;;;;;;7.71;49.48;101485.59;10399440;28;20567;-64
2022/03/13 09:39:36;;;;;;;14.98;7.18;;;;;;;7.99;46.92;101470.50;10376449;28;20053;-64
2022/03/13 09:44:59;;;;;;;11.15;7.07;;;;;;;8.17;49.06;101464.50;10400231;28;20865;-64
2022/03/13 09:50:21;;;;;;;12.90;7.13;;;;;;;8.41;48.33;101450.44;10346997;28;20630;-65
2022/03/13 09:55:43;;;;;;;13.77;6.72;;;;;;;8.56;48.63;101460.13;10373627;28;20046;-64
2022/03/13 10:01:07;;;;;;;12.23;6.45;;;;;;;8.81;53.18;101457.16;10392519;28;20049;-64
2022/03/13 10:06:29;;;;;;;10.65;6.47;;;;;;;8.89;47.42;101454.19;10379571;28;20048;-64
2022/03/13 10:12:03;;;;;;;11.65;6.57;;;;;;;9.00;48.24;101460.56;10380186;28;20057;-65
2022/03/13 10:17:29;;;;;;;9.32;6.70;;;;;;;9.14;46.51;101458.16;10380574;28;20069;-65
2022/03/13 10:23:22;;;;;;;11.73;6.90;;;;;;;9.23;45.85;101460.28;10404604;28;20067;-65
2022/03/13 10:28:44;;;;;;;13.00;6.57;;;;;;;9.32;46.63;101459.00;10405188;28;20045;-64
2022/03/13 10:34:06;;;;;;;11.23;6.63;;;;;;;9.65;47.76;101463.34;10351299;28;20137;-65
2022/03/13 10:39:28;;;;;;;10.88;6.90;;;;;;;9.87;46.24;101469.16;10397641;28;20098;-64
2022/03/13 10:44:52;;;;;;;10.88;6.35;;;;;;;10.11;45.70;101478.34;10446723;28;20045;-64
2022/03/13 10:50:16;;;;;;;9.60;5.88;;;;;;;10.54;41.44;101453.34;10364651;28;20104;-64
2022/03/13 10:55:37;;;;;;;11.80;6.30;;;;;;;10.43;43.78;101443.59;10377703;28;20057;-65
2022/03/13 11:01:07;;;;;;;9.48;5.88;;;;;;;10.82;40.03;101437.88;10392494;28;20057;-64
2022/03/13 11:06:29;;;;;;;7.85;5.63;;;;;;;10.74;41.16;101427.03;10374710;28;20128;-65
2022/03/13 11:11:51;;;;;;;10.32;6.07;;;;;;;10.83;38.93;101428.28;10364828;28;20064;-64
2022/03/13 11:17:14;;;;;;;9.82;6.28;;;;;;;10.85;41.27;101422.06;10403628;28;20149;-65
2022/03/13 11:22:36;;;;;;;10.05;6.15;;;;;;;11.13;42.13;101416.94;10403264;28;20387;-64
2022/03/13 11:27:58;;;;;;;10.55;5.35;;;;;;;11.31;37.95;101407.22;10403112;28;20563;-64
2022/03/13 11:33:32;;;;;;;7.85;5.38;;;;;;;11.26;39.51;101417.91;10402356;28;20056;-64
2022/03/13 11:39:06;;;;;;;9.30;5.40;;;;;;;11.33;38.39;101407.97;10402106;28;20788;-64
2022/03/13 11:44:33;;;;;;;9.35;5.82;;;;;;;11.54;39.34;101407.56;10389291;28;20072;-63
2022/03/13 11:49:55;;;;;;;8.88;5.25;;;;;;;11.56;39.31;101405.72;10381556;28;20052;-64
2022/03/13 11:55:17;;;;;;;8.43;5.47;;;;;;;11.64;39.69;101408.72;10388889;28;20050;-64
2022/03/13 12:00:42;;;;;;;7.57;5.60;;;;;;;11.50;38.78;101396.44;10385392;28;20528;-64
2022/03/13 12:06:05;;;;;;;8.07;5.68;;;;;;;11.73;41.93;101382.88;10373129;28;20038;-64
2022/03/13 12:11:44;;;;;;;12.40;5.80;;;;;;;11.94;38.32;101385.97;10372383;28;20141;-64
2022/03/13 12:17:08;;;;;;;9.30;5.90;;;;;;;12.20;36.37;101377.38;10374278;28;20049;-63
2022/03/13 12:22:31;;;;;;;10.55;6.20;;;;;;;12.11;37.46;101384.00;10373596;28;20589;-63
2022/03/13 12:27:53;;;;;;;9.35;5.63;;;;;;;12.27;36.38;101373.41;10369408;28;20045;-63
2022/03/13 12:33:17;;;;;;;8.20;5.15;;;;;;;12.45;37.43;101372.28;10393624;28;20057;-63
2022/03/13 12:38:43;;;;;;;9.50;5.90;;;;;;;12.56;36.75;101360.19;10377255;28;20080;-63
2022/03/13 12:44:05;;;;;;;10.25;5.97;;;;;;;12.62;40.33;101350.19;10368749;28;20054;-64
2022/03/13 12:49:32;;;;;;;10.13;5.97;;;;;;;12.68;40.45;101355.00;10360058;28;20088;-64
2022/03/13 12:55:00;;;;;;;10.35;5.68;;;;;;;12.56;39.80;101361.03;10365833;28;20057;-63
2022/03/13 13:00:32;;;;;;;9.00;5.85;;;;;;;12.52;40.53;101349.06;10392812;28;20053;-63
2022/03/13 13:05:53;;;;;;;10.40;6.70;;;;;;;12.80;36.12;101349.00;10380589;28;20141;-63
2022/03/13 13:11:31;;;;;;;10.02;6.03;;;;;;;12.71;39.35;101341.72;10386854;28;20062;-63
2022/03/13 13:16:54;;;;;;;9.63;6.03;;;;;;;12.94;38.70;101341.09;10382978;28;20054;-63
2022/03/13 13:22:23;;;;;;;12.05;6.28;;;;;;;12.74;40.43;101346.75;10375110;28;20398;-63
2022/03/13 13:27:47;;;;;;;12.20;6.53;;;;;;;13.16;35.37;101346.56;10413411;28;20048;-63
2022/03/13 13:33:11;;;;;;;10.52;6.88;;;;;;;12.92;40.09;101347.34;10387089;28;20056;-63
2022/03/13 13:38:33;;;;;;;13.48;6.80;;;;;;;12.99;35.49;101352.09;10388662;28;20054;-63
2022/03/13 13:43:55;;;;;;;14.55;6.95;;;;;;;12.97;39.76;101355.75;10387636;28;20053;-63
2022/03/13 13:49:25;;;;;;;15.55;6.70;;;;;;;12.97;36.43;101350.53;10388940;28;20049;-63
2022/03/13 13:54:46;;;;;;;11.25;7.30;;;;;;;12.91;39.19;101351.78;10377039;28;20049;-63
2022/03/13 14:00:08;;;;;;;12.38;7.55;;;;;;;12.75;42.57;101345.81;10392741;28;20052;-64
2022/03/13 14:05:32;;;;;;;12.05;7.25;;;;;;;12.79;41.02;101352.53;10371545;28;20138;-63
2022/03/13 14:11:17;;;;;;;12.52;7.15;;;;;;;12.83;41.06;101354.00;10392489;28;20461;-64
2022/03/13 14:16:39;;;;;;;9.38;6.32;;;;;;;12.76;45.85;101350.13;10364098;28;20056;-63
2022/03/13 14:22:15;;;;;;;9.20;6.57;;;;;;;12.77;43.10;101348.31;10401166;28;20057;-64
2022/03/13 14:27:38;;;;;;;13.15;6.82;;;;;;;12.73;42.06;101345.09;10437638;28;20639;-63
2022/03/13 14:32:59;;;;;;;9.80;7.20;;;;;;;12.58;43.66;101338.22;10390147;28;20064;-64
2022/03/13 14:38:21;;;;;;;11.77;6.80;;;;;;;12.55;42.27;101348.88;10389736;28;20445;-63
2022/03/13 14:43:44;;;;;;;10.77;7.13;;;;;;;12.58;45.63;101338.22;10404765;28;20450;-63
2022/03/13 14:49:06;;;;;;;13.85;6.93;;;;;;;12.48;45.70;101342.38;10381450;28;20494;-63
2022/03/13 14:54:28;;;;;;;10.20;7.75;;;;;;;12.49;43.01;101337.97;10363957;28;20057;-63
2022/03/13 14:59:49;;;;;;;26.20;14.48;;;;;;;12.49;50.49;101341.44;10404072;28;20433;-63
2022/03/13 15:05:11;;;;;;;343.33;190.35;;;;;;;12.58;47.99;101335.63;10374689;28;20548;-64
2022/03/13 15:10:33;;;;;;;23.63;15.20;;;;;;;12.60;45.06;101336.34;10407055;28;20060;-63
2022/03/13 15:15:54;;;;;;;12.00;8.30;;;;;;;12.79;42.89;101336.84;10390814;28;20115;-64
2022/03/13 15:21:16;;;;;;;25.10;13.90;;;;;;;12.67;44.82;101332.38;10402630;28;20061;-63
2022/03/13 15:26:38;;;;;;;22.10;13.77;;;;;;;12.60;44.34;101330.28;10400836;28;20046;-63
2022/03/13 15:32:00;;;;;;;25.83;16.55;;;;;;;12.74;44.16;101338.91;10403709;28;20072;-63
2022/03/13 15:37:21;;;;;;;10.38;7.25;;;;;;;12.67;45.26;101342.84;10402000;28;20057;-64
2022/03/13 15:42:43;;;;;;;14.48;7.72;;;;;;;12.53;44.77;101339.47;10401645;28;20103;-63
2022/03/13 15:48:05;;;;;;;11.25;7.10;;;;;;;12.30;46.05;101347.91;10401224;28;20769;-64
2022/03/13 15:53:30;;;;;;;13.45;8.85;;;;;;;12.26;48.23;101351.69;10397528;28;20053;-63
2022/03/13 15:58:57;;;;;;;11.70;7.70;;;;;;;12.27;42.06;101344.66;10400460;28;20497;-64
2022/03/13 16:04:18;;;;;;;14.77;7.35;;;;;;;12.25;45.93;101349.16;10440598;28;20049;-64
2022/03/13 16:09:40;;;;;;;14.10;9.18;;;;;;;12.25;43.92;101354.38;10459352;28;20509;-63
2022/03/13 16:15:03;;;;;;;26.75;14.88;;;;;;;12.21;44.76;101356.34;10439659;28;20568;-63
2022/03/13 16:20:25;;;;;;;12.32;7.30;;;;;;;12.22;53.04;101357.22;10430509;28;20041;-63
2022/03/13 16:25:46;;;;;;;23.33;12.48;;;;;;;11.91;46.81;101362.66;10419280;28;20490;-63
2022/03/13 16:31:08;;;;;;;26.92;16.40;;;;;;;11.72;47.51;101375.97;10444993;28;20429;-63
2022/03/13 16:36:30;;;;;;;63.67;30.33;;;;;;;11.83;45.69;101367.50;10467958;28;20056;-63
2022/03/13 16:41:52;;;;;;;56.15;28.15;;;;;;;11.67;49.63;101379.81;10461933;28;20051;-63
2022/03/13 16:47:13;;;;;;;35.72;20.25;;;;;;;11.50;47.83;101375.56;10452005;28;20056;-63
2022/03/13 16:52:35;;;;;;;21.33;12.90;;;;;;;11.36;48.32;101366.84;10455893;28;20067;-63
2022/03/13 16:57:57;;;;;;;86.82;34.20;;;;;;;11.45;45.55;101387.22;10447633;28;20064;-63
2022/03/13 17:03:19;;;;;;;71.53;31.60;;;;;;;11.34;46.94;101383.53;10470056;28;20432;-62
2022/03/13 17:08:41;;;;;;;14.05;8.02;;;;;;;11.30;44.22;101382.91;10470115;28;20141;-63
2022/03/13 17:14:03;;;;;;;8.77;6.25;;;;;;;11.17;43.69;101394.97;10456130;28;20063;-63
2022/03/13 17:19:25;;;;;;;12.40;6.10;;;;;;;11.04;45.61;101391.41;10472430;28;20048;-63
2022/03/13 17:24:47;;;;;;;12.77;6.68;;;;;;;10.87;45.38;101399.34;10459214;28;20421;-63
2022/03/13 17:30:10;;;;;;;16.83;6.78;;;;;;;10.90;44.11;101403.53;10466263;28;20053;-63
2022/03/13 17:35:31;;;;;;;9.32;5.95;;;;;;;10.91;46.38;101406.06;10435449;28;20053;-64
2022/03/13 17:40:53;;;;;;;7.80;5.90;;;;;;;10.72;45.05;101426.28;10458226;28;20063;-63
2022/03/13 17:46:15;;;;;;;11.45;6.10;;;;;;;10.76;48.52;101426.94;10435177;28;20801;-62
2022/03/13 17:51:40;;;;;;;11.45;6.18;;;;;;;10.43;48.00;101441.00;10435284;28;20167;-62
2022/03/13 17:57:02;;;;;;;11.27;6.93;;;;;;;10.48;45.42;101452.03;10447035;28;20421;-62
2022/03/13 18:02:24;;;;;;;9.43;6.03;;;;;;;10.32;51.60;101451.16;10474406;28;20099;-64
2022/03/13 18:07:45;;;;;;;9.55;6.15;;;;;;;10.19;50.14;101452.75;10473384;28;20055;-62
2022/03/13 18:13:07;;;;;;;10.93;6.20;;;;;;;10.27;45.73;101455.75;10467020;28;20055;-62
2022/03/13 18:18:29;;;;;;;14.85;6.28;;;;;;;10.34;47.75;101464.91;10473802;28;20141;-62
2022/03/13 18:23:51;;;;;;;9.80;5.63;;;;;;;10.27;47.49;101463.59;10460723;28;20139;-63
2022/03/13 18:29:12;;;;;;;9.30;5.93;;;;;;;10.19;45.01;101463.97;10467069;28;20055;-62
2022/03/13 18:34:34;;;;;;;8.98;5.47;;;;;;;10.06;44.71;101475.13;10452927;28;20052;-62
2022/03/13 18:39:56;;;;;;;11.93;6.22;;;;;;;9.98;46.62;101474.66;10453025;28;20601;-62
2022/03/13 18:45:18;;;;;;;9.50;6.15;;;;;;;9.87;49.90;101490.00;10467812;28;20052;-62
2022/03/13 18:50:41;;;;;;;9.18;5.72;;;;;;;9.81;47.18;101485.09;10454487;28;20044;-63
2022/03/13 18:56:03;;;;;;;10.10;6.03;;;;;;;9.81;48.32;101479.88;10464828;28;20061;-62
2022/03/13 19:01:25;;;;;;;9.52;5.78;;;;;;;9.78;45.65;101480.03;10450347;28;20053;-62
2022/03/13 19:06:47;;;;;;;9.80;5.85;;;;;;;9.86;51.01;101489.13;10460566;28;20489;-63
2022/03/13 19:12:10;;;;;;;10.02;6.32;;;;;;;9.76;44.82;101481.88;10455948;28;20044;-63
2022/03/13 19:17:44;;;;;;;9.63;5.57;;;;;;;9.83;47.91;101488.47;10461321;28;20375;-63
2022/03/13 19:23:06;;;;;;;9.80;6.15;;;;;;;9.66;47.11;101493.66;10461490;28;20057;-63
2022/03/13 19:28:28;;;;;;;8.32;5.75;;;;;;;9.79;44.13;101497.34;10450352;28;20040;-61
2022/03/13 19:33:50;;;;;;;7.95;5.60;;;;;;;9.71;46.84;101496.91;10447108;28;20063;-62
2022/03/13 19:39:11;;;;;;;11.18;6.47;;;;;;;9.69;46.69;101490.91;10461164;28;20044;-62
2022/03/13 19:44:35;;;;;;;10.95;5.53;;;;;;;9.68;46.48;101489.22;10476750;28;20493;-62
2022/03/13 19:49:58;;;;;;;10.98;6.38;;;;;;;9.72;43.71;101480.34;10459441;28;20040;-63
2022/03/13 19:55:19;;;;;;;11.07;6.13;;;;;;;9.57;45.44;101494.13;10465020;28;20044;-62
2022/03/13 20:00:41;;;;;;;8.25;6.10;;;;;;;9.53;46.18;101494.38;10467711;28;20377;-62
2022/03/13 20:06:04;;;;;;;9.15;5.97;;;;;;;9.54;45.80;101494.28;10474838;28;20077;-62
2022/03/13 20:11:26;;;;;;;9.50;6.78;;;;;;;9.45;46.14;101492.16;10459060;28;20403;-62
2022/03/13 20:16:48;;;;;;;9.82;5.53;;;;;;;9.41;45.37;101498.41;10460512;28;20083;-62
2022/03/13 20:22:12;;;;;;;9.23;5.78;;;;;;;9.31;46.25;101497.19;10456370;28;20616;-62
2022/03/13 20:27:35;;;;;;;10.15;6.32;;;;;;;9.21;47.14;101506.34;10462391;28;20512;-62
2022/03/13 20:32:56;;;;;;;11.57;6.53;;;;;;;9.02;46.82;101502.09;10449264;28;20052;-62
2022/03/13 20:38:21;;;;;;;14.80;6.30;;;;;;;9.05;48.07;101505.38;10460142;28;20043;-62
2022/03/13 20:43:44;;;;;;;11.65;6.40;;;;;;;9.11;46.84;101507.69;10479965;28;20562;-62
2022/03/13 20:49:07;;;;;;;8.68;6.10;;;;;;;9.09;46.45;101504.31;10432797;28;20060;-62
2022/03/13 20:54:28;;;;;;;9.55;6.22;;;;;;;9.02;46.38;101515.91;10433874;28;20404;-62
2022/03/13 20:59:50;;;;;;;10.50;6.32;;;;;;;8.89;50.21;101517.41;10434453;28;20056;-62
2022/03/13 21:05:12;;;;;;;13.15;6.28;;;;;;;8.91;46.03;101515.59;10434644;28;20056;-62
2022/03/13 21:10:34;;;;;;;8.32;5.75;;;;;;;8.77;49.28;101525.78;10450026;28;20184;-62
2022/03/13 21:15:55;;;;;;;11.57;7.03;;;;;;;8.73;52.32;101526.81;10435150;28;20049;-62
2022/03/13 21:21:17;;;;;;;9.57;6.75;;;;;;;8.53;53.12;101518.25;10462910;28;20386;-62
2022/03/13 21:26:40;;;;;;;13.05;6.88;;;;;;;8.56;51.43;101522.50;10449056;28;20521;-62
2022/03/13 21:32:03;;;;;;;11.40;6.95;;;;;;;8.57;52.57;101530.19;10433434;28;20068;-62
2022/03/13 21:37:25;;;;;;;10.60;6.60;;;;;;;8.40;52.05;101531.88;10435825;28;20051;-62
2022/03/13 21:42:46;;;;;;;12.27;7.18;;;;;;;8.30;51.38;101541.81;10467538;28;20045;-62
2022/03/13 21:48:08;;;;;;;11.57;7.20;;;;;;;8.31;53.86;101547.84;10432436;28;20062;-62
2022/03/13 21:53:30;;;;;;;11.70;7.15;;;;;;;8.37;51.98;101542.41;10448251;28;20049;-62
2022/03/13 21:58:52;;;;;;;9.50;6.10;;;;;;;8.27;53.17;101541.13;10468024;28;20114;-62
2022/03/13 22:04:13;;;;;;;11.25;6.25;;;;;;;8.28;52.09;101542.81;10455107;28;20057;-62
2022/03/13 22:09:35;;;;;;;10.85;6.30;;;;;;;8.25;53.34;101542.94;10465217;28;20037;-62
2022/03/13 22:14:59;;;;;;;9.25;6.68;;;;;;;8.23;55.67;101549.94;10440324;28;20053;-62
2022/03/13 22:20:20;;;;;;;9.00;6.20;;;;;;;8.19;53.63;101550.97;10460903;28;20040;-63
2022/03/13 22:25:42;;;;;;;19.33;6.32;;;;;;;8.14;48.96;101547.72;10481284;28;20067;-62
2022/03/13 22:31:07;;;;;;;10.63;6.45;;;;;;;8.11;52.27;101553.06;10458784;28;20489;-62
2022/03/13 22:36:29;;;;;;;10.45;7.20;;;;;;;8.06;53.59;101555.84;10425590;28;20128;-62
2022/03/13 22:41:50;;;;;;;11.98;6.82;;;;;;;7.99;54.33;101554.41;10505379;28;20052;-62
2022/03/13 22:47:12;;;;;;;11.52;7.00;;;;;;;7.95;52.72;101549.41;10491418;28;20060;-62
2022/03/13 22:52:39;;;;;;;12.98;6.65;;;;;;;7.89;54.75;101550.53;10424982;28;20053;-62
2022/03/13 22:58:01;;;;;;;10.77;7.05;;;;;;;7.90;50.52;101553.94;10447148;28;20108;-63
2022/03/13 23:03:23;;;;;;;13.00;6.93;;;;;;;7.95;53.43;101565.00;10479435;28;20048;-62
2022/03/13 23:08:45;;;;;;;8.38;6.05;;;;;;;7.82;53.28;101563.81;10439624;28;20048;-62
2022/03/13 23:14:08;;;;;;;10.80;6.75;;;;;;;7.83;53.87;101562.91;10437589;28;20052;-62
2022/03/13 23:19:33;;;;;;;11.95;7.40;;;;;;;7.78;56.10;101570.03;10451693;28;20053;-62
2022/03/13 23:24:54;;;;;;;11.52;6.55;;;;;;;7.72;54.75;101562.50;10478205;28;20056;-62
2022/03/13 23:30:16;;;;;;;11.15;5.97;;;;;;;7.59;53.62;101571.69;10477682;28;20075;-62
2022/03/13 23:35:39;;;;;;;12.70;6.82;;;;;;;7.62;55.33;101571.56;10444165;28;20051;-62
2022/03/13 23:41:03;;;;;;;10.85;6.68;;;;;;;7.64;57.88;101568.00;10466428;28;20055;-62
2022/03/13 23:46:25;;;;;;;15.82;7.53;;;;;;;7.47;55.86;101560.97;10436196;28;20088;-62
2022/03/13 23:51:48;;;;;;;11.25;6.88;;;;;;;7.28;53.95;101579.00;10436644;28;20053;-62
2022/03/13 23:57:09;;;;;;;10.93;7.00;;;;;;;7.39;55.41;101574.25;10478928;28;20055;-62
